createdAt,value
2019-05-17T00:02:03.611Z,12.31
2019-05-17T00:04:36.365Z,12.30
2019-05-17T00:07:08.704Z,12.30
2019-05-17T00:09:41.057Z,12.25
2019-05-17T00:12:13.470Z,12.24
2019-05-17T00:14:47.297Z,12.19
2019-05-17T00:17:19.147Z,12.18
2019-05-17T00:19:51.210Z,12.17
2019-05-17T00:22:23.144Z,12.13
2019-05-17T00:24:56.825Z,12.08
2019-05-17T00:27:29.064Z,12.00
2019-05-17T00:30:01.204Z,11.94
2019-05-17T00:32:36.930Z,11.93
2019-05-17T00:35:09.076Z,11.92
2019-05-17T00:37:41.248Z,11.91
2019-05-17T00:40:16.384Z,11.91
2019-05-17T00:42:47.491Z,11.89
2019-05-17T00:45:19.435Z,11.88
2019-05-17T00:47:51.450Z,11.89
2019-05-17T00:50:23.430Z,11.91
2019-05-17T00:52:56.642Z,11.97
2019-05-17T00:55:28.846Z,12.03
2019-05-17T00:58:00.801Z,12.12
2019-05-17T01:00:32.873Z,12.17
2019-05-17T01:03:06.933Z,12.23
2019-05-17T01:05:38.610Z,12.30
2019-05-17T01:08:10.844Z,12.35
2019-05-17T01:10:43.014Z,12.38
2019-05-17T01:13:17.132Z,12.47
2019-05-17T01:15:48.765Z,12.52
2019-05-17T01:18:21.004Z,12.59
2019-05-17T01:20:53.021Z,12.59
2019-05-17T01:23:26.983Z,12.59
2019-05-17T01:25:58.781Z,12.63
2019-05-17T01:28:30.788Z,12.67
2019-05-17T01:31:02.816Z,12.66
2019-05-17T01:33:36.701Z,12.70
2019-05-17T01:36:08.478Z,12.73
2019-05-17T01:38:41.154Z,12.74
2019-05-17T01:41:13.200Z,12.71
2019-05-17T01:43:47.295Z,12.72
2019-05-17T01:46:18.898Z,12.75
2019-05-17T01:48:51.262Z,12.78
2019-05-17T01:51:23.260Z,12.79
2019-05-17T01:53:57.221Z,12.81
2019-05-17T01:56:28.963Z,12.83
2019-05-17T01:59:01.250Z,12.87
2019-05-17T02:01:33.375Z,12.92
2019-05-17T02:04:06.627Z,12.95
2019-05-17T02:06:38.905Z,12.96
2019-05-17T02:09:10.890Z,12.99
2019-05-17T02:11:42.906Z,12.99
2019-05-17T02:14:16.565Z,13.01
2019-05-17T02:16:48.737Z,13.02
2019-05-17T02:19:20.702Z,13.02
2019-05-17T02:21:52.724Z,13.02
2019-05-17T02:24:24.759Z,13.05
2019-05-17T02:26:57.068Z,13.06
2019-05-17T02:29:29.222Z,13.02
2019-05-17T02:32:03.914Z,13.01
2019-05-17T02:34:35.120Z,12.98
2019-05-17T02:37:07.102Z,12.99
2019-05-17T02:39:56.535Z,13.00
2019-05-17T02:42:13.920Z,13.02
2019-05-17T02:44:45.983Z,13.01
2019-05-17T02:47:17.951Z,12.99
2019-05-17T02:49:52.375Z,12.99
2019-05-17T02:52:23.882Z,13.01
2019-05-17T02:54:55.881Z,12.99
2019-05-17T02:57:27.848Z,12.95
2019-05-17T03:00:04.028Z,12.90
2019-05-17T03:02:34.330Z,12.84
2019-05-17T03:05:07.095Z,12.78
2019-05-17T03:07:39.104Z,12.75
2019-05-17T03:10:22.179Z,12.77
2019-05-17T03:12:45.361Z,12.77
2019-05-17T03:15:17.325Z,12.74
2019-05-17T03:17:49.291Z,12.64
2019-05-17T03:20:23.273Z,12.60
2019-05-17T03:22:55.013Z,12.60
2019-05-17T03:25:26.981Z,12.60
2019-05-17T03:27:58.949Z,12.64
2019-05-17T03:30:36.757Z,12.66
2019-05-17T03:33:07.800Z,12.68
2019-05-17T03:35:45.201Z,12.73
2019-05-17T03:38:14.230Z,12.71
2019-05-17T03:41:07.494Z,12.78
2019-05-17T03:43:22.597Z,12.76
2019-05-17T03:45:53.866Z,12.74
2019-05-17T03:48:25.894Z,12.64
2019-05-17T03:50:58.009Z,12.61
2019-05-17T03:53:33.160Z,12.59
2019-05-17T03:56:04.066Z,12.56
2019-05-17T03:58:36.021Z,12.59
2019-05-17T04:01:08.171Z,12.62
2019-05-17T04:03:43.499Z,12.59
2019-05-17T04:06:14.144Z,12.55
2019-05-17T04:08:46.097Z,12.48
2019-05-17T04:11:27.831Z,12.46
2019-05-17T04:13:53.774Z,12.42
2019-05-17T04:16:25.499Z,12.43
2019-05-17T04:18:57.460Z,12.47
2019-05-17T04:21:29.469Z,12.55
2019-05-17T04:24:03.460Z,12.67
2019-05-17T04:26:35.474Z,12.80
2019-05-17T04:29:07.492Z,12.90
2019-05-17T04:31:43.108Z,13.00
2019-05-17T04:34:13.835Z,13.16
2019-05-17T04:36:45.937Z,13.28
2019-05-17T04:39:17.960Z,13.40
2019-05-17T04:41:54.644Z,13.48
2019-05-17T04:44:24.083Z,13.56
2019-05-17T04:46:56.072Z,13.65
2019-05-17T04:49:28.088Z,13.77
2019-05-17T04:52:03.096Z,13.94
2019-05-17T04:54:33.895Z,14.03
2019-05-17T04:57:05.876Z,14.13
2019-05-17T04:59:37.838Z,14.38
2019-05-17T05:02:12.902Z,14.58
2019-05-17T05:04:43.916Z,14.82
2019-05-17T05:07:16.061Z,15.01
2019-05-17T05:09:48.097Z,15.10
2019-05-17T05:12:22.864Z,15.16
2019-05-17T05:14:54.109Z,15.22
2019-05-17T05:17:26.096Z,15.24
2019-05-17T05:19:58.065Z,15.21
2019-05-17T05:22:32.966Z,15.21
2019-05-17T05:25:06.410Z,15.34
2019-05-17T05:27:38.417Z,15.47
2019-05-17T05:30:12.067Z,15.63
2019-05-17T05:32:44.327Z,15.81
2019-05-17T05:35:16.320Z,16.04
2019-05-17T05:37:48.268Z,16.26
2019-05-17T05:40:21.408Z,16.58
2019-05-17T05:42:53.512Z,16.86
2019-05-17T05:45:25.471Z,17.14
2019-05-17T05:47:57.450Z,17.50
2019-05-17T05:50:32.186Z,17.74
2019-05-17T05:53:03.174Z,17.72
2019-05-17T05:55:36.098Z,17.59
2019-05-17T05:58:08.106Z,17.52
2019-05-17T06:00:42.539Z,17.36
2019-05-17T06:03:13.893Z,17.34
2019-05-17T06:05:45.944Z,17.38
2019-05-17T06:08:18.000Z,17.74
2019-05-17T06:10:52.893Z,18.20
2019-05-17T06:13:23.686Z,18.53
2019-05-17T06:15:55.944Z,18.58
2019-05-17T06:18:28.011Z,18.27
2019-05-17T06:21:02.736Z,17.82
2019-05-17T06:23:34.782Z,17.48
2019-05-17T06:26:06.799Z,17.23
2019-05-17T06:28:39.615Z,16.92
2019-05-17T06:31:11.766Z,16.73
2019-05-17T06:33:43.836Z,16.61
2019-05-17T06:36:15.871Z,16.54
2019-05-17T06:38:47.938Z,16.55
2019-05-17T06:41:21.528Z,16.52
2019-05-17T06:43:53.710Z,16.39
2019-05-17T06:46:25.801Z,16.34
2019-05-17T06:48:57.863Z,16.42
2019-05-17T06:51:31.601Z,16.54
2019-05-17T06:54:03.713Z,16.79
2019-05-17T06:56:35.772Z,17.12
2019-05-17T06:59:07.740Z,17.62
2019-05-17T07:01:40.979Z,18.10
2019-05-17T07:04:13.179Z,18.52
2019-05-17T07:06:46.842Z,19.10
2019-05-17T07:09:19.537Z,19.48
2019-05-17T07:11:51.611Z,19.68
2019-05-17T07:14:23.622Z,20.00
2019-05-17T07:16:55.680Z,20.23
2019-05-17T07:19:30.257Z,20.24
2019-05-17T07:22:02.235Z,20.03
2019-05-17T07:24:34.251Z,20.38
2019-05-17T07:27:06.292Z,20.54
2019-05-17T07:29:40.200Z,20.63
2019-05-17T07:32:12.140Z,21.16
2019-05-17T07:34:44.513Z,21.20
2019-05-17T07:37:16.504Z,21.61
2019-05-17T07:40:00.500Z,21.94
2019-05-17T07:42:22.260Z,21.84
2019-05-17T07:44:54.297Z,21.65
2019-05-17T07:47:26.343Z,21.51
2019-05-17T07:50:00.917Z,21.36
2019-05-17T07:52:34.007Z,21.51
2019-05-17T07:55:07.201Z,22.07
2019-05-17T07:57:40.867Z,22.85
2019-05-17T08:00:16.826Z,24.12
2019-05-17T08:02:50.631Z,25.68
2019-05-17T08:05:22.684Z,27.06
2019-05-17T08:07:54.666Z,26.98
2019-05-17T08:10:26.719Z,27.12
2019-05-17T08:13:00.198Z,27.69
2019-05-17T08:15:32.181Z,28.87
2019-05-17T08:18:04.209Z,34.08
2019-05-17T08:20:36.323Z,37.78
2019-05-17T08:23:10.536Z,41.73
2019-05-17T08:25:52.635Z,45.79
2019-05-17T08:28:16.166Z,51.29
2019-05-17T08:30:50.143Z,54.57
2019-05-17T08:33:21.982Z,48.96
2019-05-17T08:35:54.013Z,44.65
2019-05-17T08:38:26.068Z,41.52
2019-05-17T08:41:00.514Z,39.68
2019-05-17T08:43:43.104Z,38.05
2019-05-17T08:46:05.618Z,36.34
2019-05-17T08:48:40.125Z,35.90
2019-05-17T08:51:12.237Z,36.92
2019-05-17T08:53:44.246Z,36.70
2019-05-17T08:56:16.231Z,35.54
2019-05-17T08:58:49.805Z,33.76
2019-05-17T09:01:22.014Z,32.16
2019-05-17T09:03:54.010Z,30.88
2019-05-17T09:06:29.291Z,30.13
2019-05-17T09:09:02.311Z,29.97
2019-05-17T09:11:34.344Z,29.90
2019-05-17T09:14:06.379Z,29.46
2019-05-17T09:16:40.324Z,28.79
2019-05-17T09:19:12.508Z,28.29
2019-05-17T09:21:44.584Z,28.08
2019-05-17T09:24:16.665Z,28.07
2019-05-17T09:26:49.235Z,27.82
2019-05-17T09:29:21.474Z,27.79
2019-05-17T09:31:53.469Z,28.13
2019-05-17T09:34:25.507Z,28.55
2019-05-17T09:37:00.148Z,28.65
2019-05-17T09:39:31.659Z,28.46
2019-05-17T09:42:04.635Z,28.48
2019-05-17T09:44:36.636Z,28.56
2019-05-17T09:47:12.638Z,29.01
2019-05-17T09:49:44.778Z,30.08
2019-05-17T09:52:16.790Z,31.32
2019-05-17T09:54:50.452Z,31.85
2019-05-17T09:57:22.692Z,32.31
2019-05-17T09:59:55.986Z,32.81
2019-05-17T10:02:28.527Z,33.61
2019-05-17T10:05:01.263Z,36.91
2019-05-17T10:07:33.266Z,41.20
2019-05-17T10:10:06.075Z,46.63
2019-05-17T10:12:40.448Z,45.73
2019-05-17T10:15:12.746Z,42.78
2019-05-17T10:17:44.728Z,40.56
2019-05-17T10:20:16.700Z,38.76
2019-05-17T10:22:50.447Z,36.73
2019-05-17T10:25:22.774Z,35.74
2019-05-17T10:27:54.741Z,42.70
2019-05-17T10:30:26.876Z,50.55
2019-05-17T10:33:00.077Z,56.32
2019-05-17T10:35:32.260Z,59.51
2019-05-17T10:38:04.280Z,60.14
2019-05-17T10:40:36.376Z,63.74
2019-05-17T10:43:10.072Z,67.31
2019-05-17T10:45:42.169Z,69.89
2019-05-17T10:48:14.772Z,71.82
2019-05-17T10:50:46.802Z,72.23
2019-05-17T10:53:20.435Z,71.96
2019-05-17T10:55:52.812Z,72.45
2019-05-17T10:58:24.907Z,71.78
2019-05-17T11:00:57.152Z,70.72
2019-05-17T11:03:29.645Z,67.00
2019-05-17T11:06:02.254Z,68.50
2019-05-17T11:08:34.644Z,66.49
2019-05-17T11:11:06.706Z,65.37
2019-05-17T11:13:38.812Z,63.00
2019-05-17T11:16:11.709Z,61.74
2019-05-17T11:18:43.696Z,61.34
2019-05-17T11:21:16.069Z,58.83
2019-05-17T11:23:48.104Z,57.48
2019-05-17T11:26:22.773Z,57.40
2019-05-17T11:28:54.766Z,53.88
2019-05-17T11:31:26.782Z,50.41
2019-05-17T11:33:58.782Z,47.36
2019-05-17T11:36:31.310Z,45.03
2019-05-17T11:39:11.278Z,43.22
2019-05-17T11:41:43.448Z,41.12
2019-05-17T11:44:15.554Z,39.01
2019-05-17T11:46:47.597Z,37.29
2019-05-17T11:49:21.169Z,35.80
2019-05-17T11:51:53.249Z,34.69
2019-05-17T11:54:26.519Z,33.75
2019-05-17T11:57:00.456Z,32.69
2019-05-17T11:59:32.680Z,31.62
2019-05-17T12:02:09.093Z,29.84
2019-05-17T12:04:41.110Z,28.63
2019-05-17T12:07:13.128Z,28.34
2019-05-17T12:09:45.583Z,28.32
2019-05-17T12:12:17.627Z,28.29
2019-05-17T12:14:50.311Z,28.07
2019-05-17T12:17:22.330Z,27.97
2019-05-17T12:19:55.398Z,27.82
2019-05-17T12:22:27.473Z,27.70
2019-05-17T12:25:00.076Z,28.23
2019-05-17T12:27:32.733Z,28.76
2019-05-17T12:30:05.421Z,28.58
2019-05-17T12:32:38.288Z,28.68
2019-05-17T12:35:10.522Z,29.38
2019-05-17T12:37:42.649Z,30.08
2019-05-17T12:40:15.380Z,30.04
2019-05-17T12:42:47.346Z,29.68
2019-05-17T12:45:19.425Z,29.95
2019-05-17T12:47:51.432Z,30.64
2019-05-17T12:50:23.486Z,31.42
2019-05-17T12:52:55.932Z,31.81
2019-05-17T12:55:27.923Z,31.70
2019-05-17T12:58:00.374Z,31.65
2019-05-17T13:00:32.596Z,31.78
2019-05-17T13:03:05.442Z,31.64
2019-05-17T13:05:37.459Z,31.38
2019-05-17T13:08:10.041Z,31.10
2019-05-17T13:10:42.077Z,30.90
2019-05-17T13:13:14.043Z,30.84
2019-05-17T13:15:46.217Z,30.60
2019-05-17T13:18:18.309Z,30.03
2019-05-17T13:20:50.380Z,29.38
2019-05-17T13:23:22.434Z,28.72
2019-05-17T13:25:54.598Z,28.21
2019-05-17T13:28:26.653Z,28.21
2019-05-17T13:30:58.688Z,28.52
2019-05-17T13:33:30.760Z,29.08
2019-05-17T13:36:02.920Z,29.27
2019-05-17T13:38:34.985Z,29.39
2019-05-17T13:41:07.045Z,29.59
2019-05-17T13:43:39.126Z,29.78
2019-05-17T13:46:12.014Z,29.73
2019-05-17T13:48:44.116Z,29.65
2019-05-17T13:51:16.127Z,29.67
2019-05-17T13:53:48.117Z,29.76
2019-05-17T13:56:20.411Z,29.50
2019-05-17T13:58:54.642Z,29.30
2019-05-17T14:01:26.698Z,29.23
2019-05-17T14:03:58.707Z,29.32
2019-05-17T14:06:30.703Z,28.87
2019-05-17T14:09:02.916Z,28.12
2019-05-17T14:11:36.557Z,27.92
2019-05-17T14:14:09.702Z,27.89
2019-05-17T14:16:41.715Z,28.37
2019-05-17T14:19:13.788Z,29.25
2019-05-17T14:21:45.796Z,30.15
2019-05-17T14:24:17.780Z,30.92
2019-05-17T14:26:49.772Z,31.51
2019-05-17T14:29:21.989Z,31.55
2019-05-17T14:31:54.371Z,31.50
2019-05-17T14:34:26.376Z,31.04
2019-05-17T14:36:58.376Z,30.47
2019-05-17T14:39:30.632Z,29.36
2019-05-17T14:42:02.816Z,28.12
2019-05-17T14:44:34.792Z,27.07
2019-05-17T14:47:06.813Z,25.73
2019-05-17T14:49:38.850Z,24.88
2019-05-17T14:52:10.840Z,24.52
2019-05-17T14:54:42.889Z,24.16
2019-05-17T14:57:14.886Z,24.13
2019-05-17T14:59:46.843Z,24.14
2019-05-17T15:02:18.891Z,23.91
2019-05-17T15:04:51.206Z,23.73
2019-05-17T15:07:23.212Z,23.33
2019-05-17T15:09:55.269Z,22.83
2019-05-17T15:12:28.901Z,22.25
2019-05-17T15:15:01.190Z,22.18
2019-05-17T15:17:35.253Z,22.22
2019-05-17T15:20:07.334Z,22.37
2019-05-17T15:22:40.391Z,22.48
2019-05-17T15:25:12.515Z,22.45
2019-05-17T15:27:44.585Z,22.17
2019-05-17T15:30:16.868Z,21.78
2019-05-17T15:32:48.876Z,21.32
2019-05-17T15:35:20.847Z,21.00
2019-05-17T15:37:52.832Z,20.57
2019-05-17T15:40:24.832Z,20.33
2019-05-17T15:42:56.820Z,20.11
2019-05-17T15:45:28.819Z,19.91
2019-05-17T15:48:01.095Z,19.72
2019-05-17T15:50:33.613Z,19.72
2019-05-17T15:53:05.646Z,19.73
2019-05-17T15:55:38.860Z,19.84
2019-05-17T15:58:11.114Z,19.86
2019-05-17T16:00:43.417Z,19.76
2019-05-17T16:03:15.435Z,19.71
2019-05-17T16:05:47.472Z,19.67
2019-05-17T16:08:19.452Z,19.69
2019-05-17T16:10:51.477Z,19.67
2019-05-17T16:13:23.457Z,19.63
2019-05-17T16:15:55.438Z,19.71
2019-05-17T16:18:27.418Z,19.80
2019-05-17T16:21:00.071Z,19.89
2019-05-17T16:23:32.098Z,19.99
2019-05-17T16:26:04.526Z,20.00
2019-05-17T16:28:36.667Z,20.12
2019-05-17T16:31:08.676Z,20.31
2019-05-17T16:33:40.946Z,20.30
2019-05-17T16:36:12.922Z,20.15
2019-05-17T16:38:44.929Z,19.94
2019-05-17T16:41:16.891Z,19.75
2019-05-17T16:43:48.996Z,19.72
2019-05-17T16:46:21.083Z,19.66
2019-05-17T16:48:53.119Z,19.73
2019-05-17T16:51:25.082Z,19.92
2019-05-17T16:53:57.146Z,20.03
2019-05-17T16:56:29.196Z,20.02
2019-05-17T16:59:01.320Z,19.91
2019-05-17T17:01:33.326Z,19.93
2019-05-17T17:04:05.628Z,19.91
2019-05-17T17:06:37.776Z,19.90
2019-05-17T17:09:10.292Z,19.95
2019-05-17T17:11:45.746Z,20.13
2019-05-17T17:14:17.496Z,20.48
2019-05-17T17:16:49.514Z,20.99
2019-05-17T17:19:21.466Z,21.39
2019-05-17T17:21:53.479Z,21.43
2019-05-17T17:24:25.495Z,21.19
2019-05-17T17:26:57.452Z,20.90
2019-05-17T17:29:29.516Z,20.57
2019-05-17T17:32:01.570Z,20.30
2019-05-17T17:34:33.980Z,20.02
2019-05-17T17:37:07.458Z,19.68
2019-05-17T17:39:39.488Z,19.25
2019-05-17T17:42:11.585Z,18.83
2019-05-17T17:44:43.839Z,18.62
2019-05-17T17:47:15.984Z,18.48
2019-05-17T17:49:47.951Z,18.40
2019-05-17T17:52:20.251Z,18.41
2019-05-17T17:54:53.607Z,18.31
2019-05-17T17:57:25.672Z,18.28
2019-05-17T17:59:57.656Z,18.23
2019-05-17T18:02:29.703Z,18.17
2019-05-17T18:05:01.673Z,18.05
2019-05-17T18:07:33.807Z,17.96
2019-05-17T18:10:06.689Z,17.90
2019-05-17T18:12:40.669Z,17.80
2019-05-17T18:15:13.905Z,17.75
2019-05-17T18:17:45.916Z,17.73
2019-05-17T18:20:17.904Z,17.65
2019-05-17T18:22:50.274Z,17.49
2019-05-17T18:25:22.339Z,17.40
2019-05-17T18:27:54.306Z,17.30
2019-05-17T18:30:26.337Z,17.23
2019-05-17T18:32:58.349Z,17.17
2019-05-17T18:35:30.726Z,17.15
2019-05-17T18:38:03.112Z,17.14
2019-05-17T18:40:35.128Z,17.13
2019-05-17T18:43:07.269Z,17.13
2019-05-17T18:45:39.310Z,17.10
2019-05-17T18:48:11.287Z,17.17
2019-05-17T18:50:43.318Z,17.29
2019-05-17T18:53:16.946Z,17.38
2019-05-17T18:55:49.089Z,17.45
2019-05-17T18:58:21.153Z,17.48
2019-05-17T19:00:53.163Z,17.46
2019-05-17T19:03:25.400Z,17.47
2019-05-17T19:05:57.396Z,17.46
2019-05-17T19:08:30.021Z,17.50
2019-05-17T19:11:02.084Z,17.50
2019-05-17T19:13:34.052Z,17.52
2019-05-17T19:16:06.206Z,17.51
2019-05-17T19:18:38.227Z,17.49
2019-05-17T19:21:11.976Z,17.42
2019-05-17T19:23:43.990Z,17.29
2019-05-17T19:26:15.953Z,17.17
2019-05-17T19:28:47.942Z,17.03
2019-05-17T19:31:19.981Z,16.92
2019-05-17T19:33:52.073Z,16.83
2019-05-17T19:36:24.032Z,16.76
2019-05-17T19:38:56.040Z,16.68
2019-05-17T19:41:28.044Z,16.58
2019-05-17T19:43:59.999Z,16.48
2019-05-17T19:46:32.126Z,16.39
2019-05-17T19:49:04.186Z,16.31
2019-05-17T19:51:36.193Z,16.28
2019-05-17T19:54:08.222Z,16.19
2019-05-17T19:56:40.690Z,16.19
2019-05-17T19:59:12.770Z,16.19
2019-05-17T20:01:44.872Z,16.20
2019-05-17T20:04:16.915Z,16.22
2019-05-17T20:06:48.966Z,16.26
2019-05-17T20:09:21.224Z,16.33
2019-05-17T20:11:53.257Z,16.39
2019-05-17T20:14:25.230Z,16.43
2019-05-17T20:16:57.281Z,16.46
2019-05-17T20:19:29.312Z,16.50
2019-05-17T20:22:01.384Z,16.50
2019-05-17T20:24:33.350Z,16.52
2019-05-17T20:27:05.373Z,16.49
2019-05-17T20:29:37.392Z,16.49
2019-05-17T20:32:09.970Z,16.48
2019-05-17T20:34:42.086Z,16.47
2019-05-17T20:37:14.050Z,16.44
2019-05-17T20:39:46.019Z,16.34
2019-05-17T20:42:18.051Z,16.23
2019-05-17T20:44:50.621Z,16.17
2019-05-17T20:47:22.727Z,16.10
2019-05-17T20:49:54.724Z,16.04
2019-05-17T20:52:26.746Z,15.95
2019-05-17T20:54:58.789Z,15.89
2019-05-17T20:57:31.211Z,15.88
2019-05-17T21:00:03.339Z,15.85
2019-05-17T21:02:35.342Z,15.80
2019-05-17T21:05:08.378Z,15.79
2019-05-17T21:07:40.468Z,15.79
2019-05-17T21:10:12.654Z,15.85
2019-05-17T21:12:44.761Z,15.85
2019-05-17T21:15:17.428Z,15.82
2019-05-17T21:17:56.335Z,15.74
2019-05-17T21:20:28.698Z,15.64
2019-05-17T21:23:01.037Z,15.49
2019-05-17T21:25:34.137Z,15.36
2019-05-17T21:28:06.126Z,15.27
2019-05-17T21:30:38.240Z,15.15
2019-05-17T21:33:10.211Z,15.06
2019-05-17T21:35:42.207Z,15.04
2019-05-17T21:38:14.259Z,14.94
2019-05-17T21:40:46.244Z,14.89
2019-05-17T21:43:18.310Z,14.89
2019-05-17T21:46:02.644Z,14.85
2019-05-17T21:48:24.009Z,14.86
2019-05-17T21:50:56.011Z,14.89
2019-05-17T21:53:27.988Z,14.86
2019-05-17T21:56:00.314Z,14.82
2019-05-17T21:58:33.881Z,14.79
2019-05-17T22:01:20.192Z,14.71
2019-05-17T22:03:52.574Z,14.59
2019-05-17T22:06:24.825Z,14.52
2019-05-17T22:08:56.751Z,14.47
2019-05-17T22:11:28.814Z,14.38
2019-05-17T22:14:01.197Z,14.37
2019-05-17T22:16:33.177Z,14.28
2019-05-17T22:19:05.204Z,14.22
2019-05-17T22:21:37.214Z,14.16
2019-05-17T22:24:09.207Z,14.11
2019-05-17T22:26:41.366Z,14.01
2019-05-17T22:29:13.424Z,13.95
2019-05-17T22:31:45.430Z,13.86
2019-05-17T22:34:17.497Z,13.79
2019-05-17T22:36:49.618Z,13.73
2019-05-17T22:39:22.244Z,13.70
2019-05-17T22:41:54.240Z,13.64
2019-05-17T22:44:26.356Z,13.57
2019-05-17T22:46:58.381Z,13.51
2019-05-17T22:49:30.403Z,13.46
2019-05-17T22:52:02.389Z,13.41
2019-05-17T22:54:34.343Z,13.37
2019-05-17T22:57:06.411Z,13.34
2019-05-17T22:59:38.510Z,13.31
2019-05-17T23:02:10.915Z,13.29
2019-05-17T23:04:42.924Z,13.25
2019-05-17T23:07:14.905Z,13.24
2019-05-17T23:09:46.904Z,13.23
2019-05-17T23:12:18.950Z,13.23
2019-05-17T23:14:51.411Z,13.22
2019-05-17T23:17:23.415Z,13.19
2019-05-17T23:19:55.507Z,13.14
2019-05-17T23:22:27.532Z,13.15
2019-05-17T23:24:59.506Z,13.09
2019-05-17T23:27:31.517Z,13.09
2019-05-17T23:30:03.587Z,13.15
2019-05-17T23:32:35.595Z,13.16
2019-05-17T23:35:08.969Z,13.19
2019-05-17T23:37:41.113Z,13.19
2019-05-17T23:40:13.534Z,13.20
2019-05-17T23:42:45.569Z,13.20
2019-05-17T23:45:17.524Z,13.18
2019-05-17T23:47:49.546Z,13.24
2019-05-17T23:50:21.662Z,13.19
2019-05-17T23:52:53.635Z,13.12
2019-05-17T23:55:25.609Z,13.12
2019-05-17T23:57:57.574Z,13.13
